createdAt,value
2024-05-09T00:00:36.257Z,9.83
2024-05-09T00:03:08.244Z,9.81
2024-05-09T00:05:36.653Z,9.76
2024-05-09T00:08:04.084Z,9.76
2024-05-09T00:10:36.342Z,9.70
2024-05-09T00:13:09.341Z,9.68
2024-05-09T00:15:36.862Z,9.65
2024-05-09T00:18:05.442Z,9.58
2024-05-09T00:20:38.130Z,9.59
2024-05-09T00:23:13.823Z,9.54
2024-05-09T00:25:43.052Z,9.53
2024-05-09T00:28:11.521Z,9.51
2024-05-09T00:30:38.233Z,9.50
2024-05-09T00:33:09.606Z,9.46
2024-05-09T00:35:37.557Z,9.42
2024-05-09T00:38:04.841Z,9.38
2024-05-09T00:40:43.258Z,9.34
2024-05-09T00:43:12.531Z,9.26
2024-05-09T00:45:40.328Z,9.25
2024-05-09T00:48:09.379Z,9.22
2024-05-09T00:50:39.751Z,9.23
2024-05-09T00:53:08.188Z,9.16
2024-05-09T00:55:37.224Z,9.13
2024-05-09T00:58:07.502Z,9.06
2024-05-09T01:00:39.103Z,9.03
2024-05-09T01:03:12.553Z,8.99
2024-05-09T01:05:41.062Z,8.97
2024-05-09T01:08:09.019Z,8.90
2024-05-09T01:10:41.715Z,8.85
2024-05-09T01:13:10.724Z,8.79
2024-05-09T01:15:37.353Z,8.81
2024-05-09T01:18:07.796Z,8.76
2024-05-09T01:20:41.979Z,8.74
2024-05-09T01:23:12.409Z,8.73
2024-05-09T01:25:39.939Z,8.69
2024-05-09T01:28:07.142Z,8.68
2024-05-09T01:30:36.326Z,8.63
2024-05-09T01:33:09.866Z,8.63
2024-05-09T01:35:39.210Z,8.61
2024-05-09T01:38:06.992Z,8.56
2024-05-09T01:40:38.498Z,8.50
2024-05-09T01:43:10.983Z,8.43
2024-05-09T01:45:39.504Z,8.38
2024-05-09T01:48:07.875Z,8.39
2024-05-09T01:50:39.599Z,8.37
2024-05-09T01:53:15.089Z,8.36
2024-05-09T01:55:42.494Z,8.30
2024-05-09T01:58:09.591Z,8.29
2024-05-09T02:00:40.629Z,8.23
2024-05-09T02:03:12.715Z,8.26
2024-05-09T02:05:42.858Z,8.21
2024-05-09T02:08:17.006Z,8.15
2024-05-09T02:10:44.700Z,8.13
2024-05-09T02:13:11.637Z,8.10
2024-05-09T02:15:38.362Z,8.08
2024-05-09T02:18:05.715Z,8.04
2024-05-09T02:20:36.114Z,7.98
2024-05-09T02:23:06.214Z,7.97
2024-05-09T02:25:33.409Z,7.94
2024-05-09T02:28:00.136Z,7.90
2024-05-09T02:30:36.563Z,7.90
2024-05-09T02:33:08.066Z,7.85
2024-05-09T02:35:35.507Z,7.82
2024-05-09T02:38:02.322Z,7.84
2024-05-09T02:40:36.494Z,7.82
2024-05-09T02:43:10.019Z,7.74
2024-05-09T02:45:38.098Z,7.71
2024-05-09T02:48:05.502Z,7.72
2024-05-09T02:50:37.978Z,7.70
2024-05-09T02:53:10.823Z,7.66
2024-05-09T02:55:38.266Z,7.64
2024-05-09T02:58:07.247Z,7.61
2024-05-09T03:00:38.915Z,7.59
2024-05-09T03:03:09.561Z,7.58
2024-05-09T03:05:38.179Z,7.52
2024-05-09T03:08:05.438Z,7.53
2024-05-09T03:10:36.265Z,7.52
2024-05-09T03:13:13.527Z,7.48
2024-05-09T03:15:41.634Z,7.48
2024-05-09T03:18:08.819Z,7.43
2024-05-09T03:20:36.822Z,7.40
2024-05-09T03:23:09.329Z,7.39
2024-05-09T03:25:37.188Z,7.36
2024-05-09T03:28:04.081Z,7.34
2024-05-09T03:30:39.510Z,7.32
2024-05-09T03:33:15.670Z,7.28
2024-05-09T03:35:43.958Z,7.30
2024-05-09T03:38:10.839Z,7.27
2024-05-09T03:40:50.535Z,7.25
2024-05-09T03:43:18.847Z,7.24
2024-05-09T03:45:46.562Z,7.21
2024-05-09T03:48:13.512Z,7.16
2024-05-09T03:50:40.453Z,7.11
2024-05-09T03:53:10.458Z,7.10
2024-05-09T03:55:37.244Z,7.12
2024-05-09T03:58:04.023Z,7.08
2024-05-09T04:00:37.368Z,7.07
2024-05-09T04:03:08.729Z,7.06
2024-05-09T04:05:39.688Z,7.07
2024-05-09T04:08:07.044Z,7.01
2024-05-09T04:10:35.024Z,7.02
2024-05-09T04:13:03.172Z,7.01
2024-05-09T04:15:30.377Z,6.99
2024-05-09T04:17:57.260Z,7.00
2024-05-09T04:20:33.689Z,7.02
2024-05-09T04:23:06.698Z,7.01
2024-05-09T04:25:33.700Z,7.02
2024-05-09T04:28:00.506Z,7.03
2024-05-09T04:30:36.080Z,7.03
2024-05-09T04:33:07.485Z,7.09
2024-05-09T04:35:35.702Z,7.13
2024-05-09T04:38:02.736Z,7.15
2024-05-09T04:40:34.128Z,7.19
2024-05-09T04:43:03.976Z,7.21
2024-05-09T04:45:30.860Z,7.26
2024-05-09T04:47:58.246Z,7.32
2024-05-09T04:50:33.457Z,7.35
2024-05-09T04:53:04.369Z,7.41
2024-05-09T04:55:31.686Z,7.49
2024-05-09T04:57:58.457Z,7.52
2024-05-09T05:00:34.157Z,7.56
2024-05-09T05:03:08.475Z,7.64
2024-05-09T05:05:40.322Z,7.69
2024-05-09T05:08:18.512Z,7.79
2024-05-09T05:10:46.621Z,7.83
2024-05-09T05:13:20.810Z,7.91
2024-05-09T05:15:55.759Z,7.96
2024-05-09T05:18:23.941Z,8.04
2024-05-09T05:20:50.894Z,8.14
2024-05-09T05:23:22.183Z,8.21
2024-05-09T05:25:50.559Z,8.24
2024-05-09T05:28:17.771Z,8.31
2024-05-09T05:30:44.576Z,8.37
2024-05-09T05:33:15.712Z,8.47
2024-05-09T05:35:42.809Z,8.62
2024-05-09T05:38:11.103Z,8.74
2024-05-09T05:40:39.241Z,8.83
2024-05-09T05:43:11.093Z,8.94
2024-05-09T05:45:38.430Z,9.01
2024-05-09T05:48:06.945Z,9.09
2024-05-09T05:50:37.177Z,9.17
2024-05-09T05:53:07.925Z,9.24
2024-05-09T05:55:39.392Z,9.34
2024-05-09T05:58:10.576Z,9.44
2024-05-09T06:00:39.476Z,9.52
2024-05-09T06:03:09.296Z,9.59
2024-05-09T06:05:37.430Z,9.75
2024-05-09T06:08:04.730Z,9.86
2024-05-09T06:10:38.001Z,10.02
2024-05-09T06:13:07.214Z,10.13
2024-05-09T06:15:34.010Z,10.27
2024-05-09T06:18:00.914Z,10.36
2024-05-09T06:20:35.223Z,10.44
2024-05-09T06:23:05.348Z,10.58
2024-05-09T06:25:32.401Z,10.68
2024-05-09T06:28:02.329Z,10.82
2024-05-09T06:30:37.557Z,10.92
2024-05-09T06:33:07.860Z,11.05
2024-05-09T06:35:35.279Z,11.16
2024-05-09T06:38:02.485Z,11.25
2024-05-09T06:40:36.381Z,11.37
2024-05-09T06:43:10.863Z,11.50
2024-05-09T06:45:39.615Z,11.65
2024-05-09T06:48:07.339Z,11.77
2024-05-09T06:50:37.865Z,11.91
2024-05-09T06:53:06.262Z,12.06
2024-05-09T06:55:33.172Z,12.17
2024-05-09T06:57:59.894Z,12.32
2024-05-09T07:00:35.076Z,12.40
2024-05-09T07:03:17.918Z,12.55
2024-05-09T07:05:47.209Z,12.65
2024-05-09T07:08:15.233Z,12.77
2024-05-09T07:10:42.177Z,12.88
2024-05-09T07:13:13.327Z,12.97
2024-05-09T07:15:41.614Z,13.10
2024-05-09T07:18:10.206Z,13.30
2024-05-09T07:20:37.069Z,13.44
2024-05-09T07:23:03.895Z,13.56
2024-05-09T07:25:30.744Z,13.64
2024-05-09T07:27:57.632Z,13.77
2024-05-09T07:30:32.606Z,13.90
2024-05-09T07:33:01.828Z,14.02
2024-05-09T07:35:29.485Z,14.13
2024-05-09T07:37:56.326Z,14.19
2024-05-09T07:40:32.227Z,14.32
2024-05-09T07:43:08.308Z,14.48
2024-05-09T07:52:32.528Z,14.84
2024-05-09T07:53:39.647Z,14.97
2024-05-09T07:56:11.720Z,15.03
2024-05-09T07:58:39.416Z,15.15
2024-05-09T08:01:06.557Z,15.25
2024-05-09T08:03:33.544Z,15.41
2024-05-09T08:06:00.493Z,15.56
2024-05-09T08:08:27.139Z,15.63
2024-05-09T08:10:53.901Z,15.66
2024-05-09T08:13:20.753Z,15.78
2024-05-09T08:15:47.489Z,15.90
2024-05-09T08:18:14.343Z,15.92
2024-05-09T08:20:42.251Z,15.98
2024-05-09T08:23:08.978Z,16.02
2024-05-09T08:25:35.635Z,16.09
2024-05-09T08:28:04.485Z,16.18
2024-05-09T08:30:36.701Z,16.33
2024-05-09T08:33:05.970Z,16.58
2024-05-09T08:35:33.681Z,16.77
2024-05-09T08:38:02.576Z,16.82
2024-05-09T08:40:34.599Z,16.76
2024-05-09T08:43:11.328Z,16.95
2024-05-09T08:45:44.330Z,17.00
2024-05-09T08:48:14.134Z,17.05
2024-05-09T08:50:41.894Z,17.09
2024-05-09T08:53:09.253Z,17.07
2024-05-09T08:55:40.580Z,17.09
2024-05-09T08:58:14.257Z,17.11
2024-05-09T09:00:43.214Z,17.07
2024-05-09T09:03:15.136Z,17.04
2024-05-09T09:05:50.218Z,17.17
2024-05-09T09:08:17.241Z,17.31
2024-05-09T09:10:45.474Z,17.59
2024-05-09T09:13:12.324Z,17.79
2024-05-09T09:15:49.508Z,17.84
2024-05-09T09:18:17.325Z,18.12
2024-05-09T09:20:44.733Z,18.37
2024-05-09T09:23:11.466Z,18.49
2024-05-09T09:25:41.371Z,18.61
2024-05-09T09:28:08.681Z,18.81
2024-05-09T09:30:41.845Z,18.91
2024-05-09T09:33:10.340Z,18.81
2024-05-09T09:35:40.001Z,18.79
2024-05-09T09:38:07.688Z,18.89
2024-05-09T09:40:39.102Z,18.80
2024-05-09T09:43:14.674Z,18.62
2024-05-09T09:45:43.527Z,18.59
2024-05-09T09:48:12.184Z,18.55
2024-05-09T09:50:40.512Z,18.35
2024-05-09T09:53:07.505Z,18.25
2024-05-09T09:55:35.674Z,18.19
2024-05-09T09:58:04.443Z,18.14
2024-05-09T10:00:33.756Z,18.17
2024-05-09T10:03:01.804Z,18.13
2024-05-09T10:05:30.018Z,18.15
2024-05-09T10:07:58.727Z,18.11
2024-05-09T10:10:31.805Z,18.18
2024-05-09T10:13:07.263Z,18.30
2024-05-09T10:15:50.539Z,18.55
2024-05-09T10:18:17.763Z,18.77
2024-05-09T10:20:45.810Z,19.06
2024-05-09T10:23:24.112Z,19.32
2024-05-09T10:26:05.901Z,19.36
2024-05-09T10:28:35.314Z,19.10
2024-05-09T10:31:13.410Z,19.14
2024-05-09T10:33:46.115Z,19.41
2024-05-09T10:36:21.680Z,19.46
2024-05-09T10:38:49.723Z,19.42
2024-05-09T10:41:17.284Z,19.61
2024-05-09T10:43:43.986Z,19.57
2024-05-09T10:46:11.592Z,19.64
2024-05-09T10:48:39.829Z,19.69
2024-05-09T10:51:06.822Z,19.76
2024-05-09T10:53:44.565Z,19.83
2024-05-09T10:56:13.431Z,20.11
2024-05-09T10:58:40.149Z,20.04
2024-05-09T11:01:07.569Z,20.09
2024-05-09T11:03:35.629Z,20.28
2024-05-09T11:06:02.935Z,20.44
2024-05-09T11:08:32.089Z,20.44
2024-05-09T11:10:59.894Z,20.56
2024-05-09T11:13:34.498Z,20.69
2024-05-09T11:16:02.425Z,20.71
2024-05-09T11:18:33.814Z,20.64
2024-05-09T11:21:03.735Z,20.74
2024-05-09T11:23:31.035Z,20.65
2024-05-09T11:25:58.777Z,20.58
2024-05-09T11:28:28.245Z,20.69
2024-05-09T11:31:08.736Z,20.66
2024-05-09T11:33:40.219Z,20.62
2024-05-09T11:36:08.180Z,20.56
2024-05-09T11:38:35.199Z,20.58
2024-05-09T11:41:02.895Z,20.46
2024-05-09T11:43:29.553Z,20.24
2024-05-09T11:45:59.769Z,20.16
2024-05-09T11:48:27.034Z,20.19
2024-05-09T11:50:55.467Z,20.19
2024-05-09T11:53:22.403Z,20.03
2024-05-09T11:55:49.027Z,19.87
2024-05-09T11:58:18.051Z,19.74
2024-05-09T12:00:45.693Z,19.85
2024-05-09T12:03:12.672Z,19.93
2024-05-09T12:05:39.603Z,19.96
2024-05-09T12:08:06.974Z,20.03
2024-05-09T12:10:35.820Z,19.98
2024-05-09T12:13:05.709Z,19.99
2024-05-09T12:15:36.651Z,20.08
2024-05-09T12:18:04.792Z,20.14
2024-05-09T12:20:37.428Z,20.10
2024-05-09T12:23:07.516Z,20.12
2024-05-09T12:25:34.952Z,20.21
2024-05-09T12:28:01.930Z,20.21
2024-05-09T12:30:36.145Z,20.13
2024-05-09T12:33:10.327Z,20.13
2024-05-09T12:35:38.037Z,20.07
2024-05-09T12:38:05.073Z,20.01
2024-05-09T12:40:36.629Z,19.90
2024-05-09T12:43:07.451Z,19.86
2024-05-09T12:45:35.197Z,19.82
2024-05-09T12:48:02.097Z,19.97
2024-05-09T12:50:33.071Z,20.01
2024-05-09T12:53:02.384Z,20.20
2024-05-09T12:55:33.392Z,20.31
2024-05-09T12:58:04.812Z,20.24
2024-05-09T13:00:34.133Z,20.19
2024-05-09T13:03:01.653Z,20.26
2024-05-09T13:05:29.051Z,20.36
2024-05-09T13:07:56.859Z,20.49
2024-05-09T13:10:31.051Z,20.59
2024-05-09T13:13:00.170Z,20.66
2024-05-09T13:15:27.445Z,20.64
2024-05-09T13:17:56.387Z,20.63
2024-05-09T13:20:31.339Z,20.66
2024-05-09T13:23:01.951Z,20.60
2024-05-09T13:25:28.685Z,20.56
2024-05-09T13:27:56.261Z,20.57
2024-05-09T13:30:29.744Z,20.54
2024-05-09T13:33:06.077Z,20.47
2024-05-09T13:35:35.318Z,20.35
2024-05-09T13:38:03.356Z,20.40
2024-05-09T13:40:34.385Z,20.17
2024-05-09T13:43:04.368Z,19.97
2024-05-09T13:45:31.602Z,19.96
2024-05-09T13:47:59.062Z,19.88
2024-05-09T13:50:32.837Z,19.82
2024-05-09T13:53:02.528Z,19.79
2024-05-09T13:55:29.167Z,19.78
2024-05-09T13:57:56.358Z,19.73
2024-05-09T14:00:37.391Z,19.64
2024-05-09T14:03:10.061Z,19.62
2024-05-09T14:05:37.050Z,19.72
2024-05-09T14:08:04.204Z,19.71
2024-05-09T14:10:32.101Z,19.73
2024-05-09T14:13:00.271Z,19.74
2024-05-09T14:15:27.113Z,19.77
2024-05-09T14:17:55.055Z,19.79
2024-05-09T14:22:51.422Z,19.85
2024-05-09T14:25:18.351Z,19.91
2024-05-09T14:27:45.233Z,19.87
2024-05-09T14:30:18.599Z,19.89
2024-05-09T14:32:53.223Z,19.90
2024-05-09T14:35:20.076Z,19.89
2024-05-09T14:37:46.841Z,19.90
2024-05-09T14:40:30.375Z,19.89
2024-05-09T14:43:03.212Z,20.01
2024-05-09T14:45:30.191Z,20.13
2024-05-09T14:47:57.312Z,20.31
2024-05-09T14:50:32.558Z,20.56
2024-05-09T14:53:03.644Z,21.12
2024-05-09T14:55:30.399Z,21.59
2024-05-09T14:57:57.409Z,22.28
2024-05-09T15:00:28.947Z,23.08
2024-05-09T15:03:00.736Z,23.45
2024-05-09T15:05:27.644Z,23.27
2024-05-09T15:07:56.967Z,22.96
2024-05-09T15:10:31.556Z,22.78
2024-05-09T15:13:02.021Z,22.61
2024-05-09T15:15:28.681Z,22.97
2024-05-09T15:17:55.847Z,23.34
2024-05-09T15:20:31.039Z,23.08
2024-05-09T15:23:02.048Z,22.46
2024-05-09T15:25:28.965Z,22.32
2024-05-09T15:27:55.980Z,22.88
2024-05-09T15:32:52.446Z,23.91
2024-05-09T15:35:20.460Z,24.02
2024-05-09T15:37:48.508Z,23.43
2024-05-09T15:40:22.316Z,23.25
2024-05-09T15:42:57.851Z,23.89
2024-05-09T15:45:24.547Z,24.41
2024-05-09T15:47:51.227Z,25.15
2024-05-09T15:50:27.683Z,25.35
2024-05-09T15:52:59.275Z,24.88
2024-05-09T15:55:26.225Z,24.38
2024-05-09T15:57:52.924Z,24.01
2024-05-09T16:00:28.443Z,24.12
2024-05-09T16:03:01.085Z,23.21
2024-05-09T16:05:28.132Z,22.68
2024-05-09T16:07:55.087Z,22.65
2024-05-09T16:10:25.994Z,22.17
2024-05-09T16:12:58.808Z,21.72
2024-05-09T16:15:25.586Z,21.43
2024-05-09T16:17:52.343Z,20.97
2024-05-09T16:20:29.867Z,20.73
2024-05-09T16:23:05.039Z,20.65
2024-05-09T16:25:31.761Z,20.62
2024-05-09T16:27:58.542Z,20.62
2024-05-09T16:30:31.968Z,20.57
2024-05-09T16:33:02.417Z,20.49
2024-05-09T16:35:29.505Z,20.49
2024-05-09T16:37:56.356Z,20.46
2024-05-09T16:40:30.329Z,20.46
2024-05-09T16:43:04.978Z,20.39
2024-05-09T16:45:32.069Z,20.28
2024-05-09T16:47:59.743Z,20.08
2024-05-09T16:50:32.402Z,20.09
2024-05-09T16:53:01.803Z,20.01
2024-05-09T16:55:28.694Z,19.75
2024-05-09T16:57:56.325Z,19.65
2024-05-09T17:00:34.829Z,19.57
2024-05-09T17:03:07.930Z,19.39
2024-05-09T17:05:35.427Z,19.36
2024-05-09T17:08:03.115Z,19.32
2024-05-09T17:10:33.451Z,19.46
2024-05-09T17:13:06.382Z,20.70
2024-05-09T17:15:34.912Z,21.71
2024-05-09T17:18:02.367Z,21.92
2024-05-09T17:20:34.066Z,21.81
2024-05-09T17:23:04.842Z,21.77
2024-05-09T17:25:32.371Z,21.43
2024-05-09T17:28:07.340Z,20.87
2024-05-09T17:30:37.700Z,20.40
2024-05-09T17:33:08.512Z,20.27
2024-05-09T17:35:36.718Z,20.08
2024-05-09T17:38:05.002Z,20.09
2024-05-09T17:40:35.739Z,20.23
2024-05-09T17:43:05.388Z,20.25
2024-05-09T17:45:33.206Z,20.21
2024-05-09T17:48:00.825Z,19.96
2024-05-09T17:50:34.945Z,19.97
2024-05-09T17:53:04.008Z,19.68
2024-05-09T17:55:30.784Z,19.48
2024-05-09T17:57:57.810Z,19.14
2024-05-09T18:00:36.223Z,19.05
2024-05-09T18:03:07.026Z,18.78
2024-05-09T18:05:36.391Z,18.54
2024-05-09T18:08:04.038Z,18.28
2024-05-09T18:10:36.640Z,18.13
2024-05-09T18:13:07.158Z,17.97
2024-05-09T18:15:34.414Z,17.82
2024-05-09T18:18:02.265Z,17.71
2024-05-09T18:20:38.041Z,17.63
2024-05-09T18:23:10.626Z,17.58
2024-05-09T18:25:37.381Z,17.56
2024-05-09T18:28:04.564Z,17.50
2024-05-09T18:30:34.612Z,17.44
2024-05-09T18:33:03.818Z,17.41
2024-05-09T18:35:30.845Z,17.34
2024-05-09T18:37:57.606Z,17.30
2024-05-09T18:40:32.557Z,17.28
2024-05-09T18:43:03.363Z,17.25
2024-05-09T18:45:30.584Z,17.22
2024-05-09T18:47:57.566Z,17.17
2024-05-09T18:50:33.729Z,17.12
2024-05-09T18:53:05.994Z,17.06
2024-05-09T18:55:32.864Z,17.00
2024-05-09T18:57:59.618Z,16.96
2024-05-09T19:00:33.647Z,16.90
2024-05-09T19:03:05.892Z,16.82
2024-05-09T19:05:35.287Z,16.86
2024-05-09T19:08:03.412Z,16.86
2024-05-09T19:10:34.340Z,16.81
2024-05-09T19:13:06.489Z,16.79
2024-05-09T19:15:37.199Z,16.73
2024-05-09T19:18:04.269Z,16.62
2024-05-09T19:20:34.793Z,16.60
2024-05-09T19:23:03.103Z,16.48
2024-05-09T19:25:29.940Z,16.37
2024-05-09T19:27:56.742Z,16.34
2024-05-09T19:30:30.505Z,16.34
2024-05-09T19:33:05.693Z,16.37
2024-05-09T19:35:32.625Z,16.27
2024-05-09T19:37:59.528Z,16.19
2024-05-09T19:40:31.376Z,16.11
2024-05-09T19:43:01.560Z,16.02
2024-05-09T19:45:29.003Z,15.95
2024-05-09T19:47:56.388Z,15.84
2024-05-09T19:50:31.918Z,15.75
2024-05-09T19:53:06.362Z,15.65
2024-05-09T19:55:33.454Z,15.55
2024-05-09T19:58:04.746Z,15.46
2024-05-09T20:00:38.547Z,15.36
2024-05-09T20:03:08.014Z,15.33
2024-05-09T20:05:35.455Z,15.22
2024-05-09T20:08:02.539Z,15.10
2024-05-09T20:10:32.725Z,15.01
2024-05-09T20:13:01.866Z,14.95
2024-05-09T20:15:29.225Z,14.91
2024-05-09T20:17:56.222Z,14.85
2024-05-09T20:20:33.084Z,14.77
2024-05-09T20:23:06.238Z,14.75
2024-05-09T20:25:33.052Z,14.71
2024-05-09T20:27:59.902Z,14.68
2024-05-09T20:30:32.009Z,14.60
2024-05-09T20:33:02.991Z,14.52
2024-05-09T20:35:33.100Z,14.49
2024-05-09T20:38:01.503Z,14.44
2024-05-09T20:40:33.238Z,14.34
2024-05-09T20:43:03.863Z,14.23
2024-05-09T20:45:30.640Z,14.14
2024-05-09T20:47:57.715Z,14.04
2024-05-09T20:50:35.446Z,13.96
2024-05-09T20:53:14.532Z,13.89
2024-05-09T20:55:45.468Z,13.79
2024-05-09T20:58:12.878Z,13.77
2024-05-09T21:00:43.267Z,13.70
2024-05-09T21:03:12.835Z,13.65
2024-05-09T21:05:40.435Z,13.60
2024-05-09T21:08:07.706Z,13.55
2024-05-09T21:10:35.735Z,13.47
2024-05-09T21:13:03.603Z,13.40
2024-05-09T21:15:31.474Z,13.34
2024-05-09T21:17:58.613Z,13.26
2024-05-09T21:20:31.100Z,13.15
2024-05-09T21:22:59.276Z,13.15
2024-05-09T21:25:26.021Z,13.10
2024-05-09T21:27:53.055Z,13.08
2024-05-09T21:30:31.417Z,13.05
2024-05-09T21:33:05.876Z,13.00
2024-05-09T21:35:33.158Z,12.95
2024-05-09T21:37:59.906Z,12.86
2024-05-09T21:40:33.696Z,12.81
2024-05-09T21:43:02.388Z,12.76
2024-05-09T21:45:29.402Z,12.74
2024-05-09T21:47:56.171Z,12.71
2024-05-09T21:50:28.694Z,12.68
2024-05-09T21:53:03.250Z,12.69
2024-05-09T21:55:30.247Z,12.71
2024-05-09T21:57:57.218Z,12.68
2024-05-09T22:00:32.090Z,12.66
2024-05-09T22:03:03.511Z,12.62
2024-05-09T22:05:30.714Z,12.58
2024-05-09T22:07:57.541Z,12.56
2024-05-09T22:10:30.610Z,12.58
2024-05-09T22:13:01.051Z,12.66
2024-05-09T22:15:27.977Z,12.63
2024-05-09T22:17:56.201Z,12.58
2024-05-09T22:20:32.833Z,12.54
2024-05-09T22:23:04.085Z,12.52
2024-05-09T22:25:31.952Z,12.46
2024-05-09T22:27:59.423Z,12.40
2024-05-09T22:30:34.392Z,12.38
2024-05-09T22:33:05.964Z,12.35
2024-05-09T22:35:33.043Z,12.25
2024-05-09T22:37:59.877Z,12.20
2024-05-09T22:40:38.185Z,12.17
2024-05-09T22:43:13.093Z,12.16
2024-05-09T22:45:40.002Z,12.15
2024-05-09T22:48:08.271Z,12.13
2024-05-09T22:50:35.111Z,12.15
2024-05-09T22:53:01.872Z,12.16
2024-05-09T22:55:28.818Z,12.12
2024-05-09T22:57:55.704Z,12.03
2024-05-09T23:00:30.894Z,12.01
2024-05-09T23:03:00.261Z,11.96
2024-05-09T23:05:27.337Z,11.93
2024-05-09T23:07:54.201Z,11.91
2024-05-09T23:10:27.289Z,11.86
2024-05-09T23:12:58.878Z,11.80
2024-05-09T23:15:25.610Z,11.81
2024-05-09T23:17:52.576Z,11.76
2024-05-09T23:20:29.807Z,11.73
2024-05-09T23:23:03.521Z,11.69
2024-05-09T23:25:30.277Z,11.69
2024-05-09T23:27:57.110Z,11.64
2024-05-09T23:30:33.313Z,11.60
2024-05-09T23:33:05.158Z,11.54
2024-05-09T23:35:31.927Z,11.53
2024-05-09T23:37:58.609Z,11.48
2024-05-09T23:40:36.725Z,11.46
2024-05-09T23:43:07.428Z,11.43
2024-05-09T23:45:34.576Z,11.39
2024-05-09T23:48:01.709Z,11.34
2024-05-09T23:50:35.793Z,11.29
2024-05-09T23:53:05.861Z,11.25
2024-05-09T23:55:32.991Z,11.22
2024-05-09T23:58:00.226Z,11.21
